Time;durP1;ratioP1;P1;durP2;ratioP2;P2;SDS_P1;SDS_P2;PMS_P1;PMS_P2;Temp;Humidity;BMP_temperature;BMP_pressure;BME280_temperature;BME280_humidity;BME280_pressure;Samples;Min_cycle;Max_cycle;Signal;HPM_P1;HPM_P2
2023/10/08 00:00:38;;;;;;;;;;;19.50;66.20;;;;;;4973476;28;19980;-76
2023/10/08 00:02:45;;;;;;;;;;;19.40;66.30;;;;;;4969260;28;19914;-74
2023/10/08 00:05:10;;;;;;;;;;;19.40;66.50;;;;;;4972686;28;20311;-72
2023/10/08 00:07:36;;;;;;;;;;;19.40;66.70;;;;;;4971000;28;19994;-75
2023/10/08 00:10:02;;;;;;;;;;;19.30;66.60;;;;;;4973007;28;20048;-73
2023/10/08 00:12:29;;;;;;;;;;;19.30;66.80;;;;;;4964879;28;20621;-75
2023/10/08 00:14:54;;;;;;;;;;;19.30;66.90;;;;;;4973726;28;20365;-73
2023/10/08 00:17:20;;;;;;;;;;;19.40;66.80;;;;;;4972330;28;19997;-74
2023/10/08 00:19:52;;;;;;;;;;;19.40;66.80;;;;;;4974103;28;19918;-75
2023/10/08 00:22:18;;;;;;;;;;;19.40;66.80;;;;;;4973699;28;19964;-74
2023/10/08 00:24:46;;;;;;;;;;;19.40;66.70;;;;;;4974960;28;19917;-74
2023/10/08 00:27:14;;;;;;;;;;;19.50;66.80;;;;;;4970817;28;19913;-71
2023/10/08 00:29:43;;;;;;;;;;;19.50;66.70;;;;;;4966486;28;19918;-75
2023/10/08 00:32:11;;;;;;;;;;;19.50;66.70;;;;;;4968771;28;19918;-72
2023/10/08 00:34:41;;;;;;;;;;;19.50;66.70;;;;;;4973343;28;19910;-73
2023/10/08 00:37:08;;;;;;;;;;;19.60;66.60;;;;;;4971936;28;20408;-72
2023/10/08 00:39:37;;;;;;;;;;;19.60;66.70;;;;;;4970898;28;19921;-74
2023/10/08 00:42:05;;;;;;;;;;;19.70;66.60;;;;;;4974565;28;19925;-75
2023/10/08 00:44:32;;;;;;;;;;;19.70;66.30;;;;;;4967618;28;19934;-75
2023/10/08 00:47:00;;;;;;;;;;;19.70;66.60;;;;;;4972341;28;20430;-73
2023/10/08 00:49:40;;;;;;;;;;;19.80;66.50;;;;;;4972612;28;19917;-74
2023/10/08 00:54:46;;;;;;;;;;;19.80;66.20;;;;;;4971382;28;19914;-73
2023/10/08 00:57:16;;;;;;;;;;;19.80;66.20;;;;;;4968031;28;19921;-72
2023/10/08 00:59:45;;;;;;;;;;;19.80;66.00;;;;;;4973605;28;19914;-72
2023/10/08 01:02:14;;;;;;;;;;;19.90;65.90;;;;;;4970119;28;19922;-74
2023/10/08 01:04:43;;;;;;;;;;;19.90;65.80;;;;;;4969502;28;19910;-75
2023/10/08 01:07:12;;;;;;;;;;;19.90;65.70;;;;;;4972075;28;19933;-75
2023/10/08 01:09:40;;;;;;;;;;;19.90;65.90;;;;;;4971435;28;20384;-75
2023/10/08 01:12:15;;;;;;;;;;;19.90;66.00;;;;;;4972378;28;19998;-71
2023/10/08 01:14:46;;;;;;;;;;;19.80;66.00;;;;;;4972704;28;19933;-75
2023/10/08 01:17:16;;;;;;;;;;;19.90;66.20;;;;;;4968535;28;19918;-71
2023/10/08 01:19:45;;;;;;;;;;;19.90;66.20;;;;;;4971730;28;19921;-71
2023/10/08 01:22:18;;;;;;;;;;;19.80;66.20;;;;;;4972071;28;20443;-74
2023/10/08 01:24:47;;;;;;;;;;;19.80;66.20;;;;;;4978036;28;19932;-74
2023/10/08 01:27:19;;;;;;;;;;;19.70;66.40;;;;;;4970916;28;19959;-74
2023/10/08 01:29:44;;;;;;;;;;;19.80;66.30;;;;;;4974642;28;19910;-75
2023/10/08 01:32:11;;;;;;;;;;;19.80;66.40;;;;;;4968811;28;19917;-74
2023/10/08 01:34:37;;;;;;;;;;;19.80;66.50;;;;;;4967559;28;19993;-74
2023/10/08 01:37:08;;;;;;;;;;;19.80;66.40;;;;;;4973166;28;20193;-75
2023/10/08 01:39:35;;;;;;;;;;;19.80;66.40;;;;;;4971740;28;19911;-72
2023/10/08 01:42:01;;;;;;;;;;;19.80;66.40;;;;;;4971796;28;19938;-75
2023/10/08 01:44:29;;;;;;;;;;;19.80;66.50;;;;;;4970684;28;19917;-75
2023/10/08 01:46:58;;;;;;;;;;;19.80;66.50;;;;;;4966689;28;19941;-74
2023/10/08 01:49:29;;;;;;;;;;;19.80;66.50;;;;;;4972324;28;19913;-74
2023/10/08 01:51:54;;;;;;;;;;;19.80;66.40;;;;;;4973273;28;20340;-75
2023/10/08 01:54:21;;;;;;;;;;;19.80;66.30;;;;;;4967233;28;19914;-74
2023/10/08 01:56:47;;;;;;;;;;;19.80;67.00;;;;;;4973011;28;19910;-75
2023/10/08 01:59:15;;;;;;;;;;;19.80;66.40;;;;;;4973564;28;19917;-74
2023/10/08 02:01:41;;;;;;;;;;;19.80;66.30;;;;;;4975815;28;19918;-75
2023/10/08 02:04:12;;;;;;;;;;;19.70;66.50;;;;;;4969807;28;20156;-71
2023/10/08 02:06:39;;;;;;;;;;;19.70;66.60;;;;;;4977397;28;19910;-75
2023/10/08 02:09:08;;;;;;;;;;;19.70;66.30;;;;;;4974416;28;20289;-70
2023/10/08 02:11:53;;;;;;;;;;;19.70;66.60;;;;;;4975123;28;20414;-74
2023/10/08 02:14:20;;;;;;;;;;;19.70;66.60;;;;;;4967758;28;19917;-72
2023/10/08 02:16:46;;;;;;;;;;;19.70;66.60;;;;;;4976449;28;19914;-74
2023/10/08 02:19:11;;;;;;;;;;;19.60;66.80;;;;;;4973401;28;19936;-74
2023/10/08 02:21:40;;;;;;;;;;;19.60;66.90;;;;;;4970461;28;19915;-73
2023/10/08 02:24:07;;;;;;;;;;;19.60;67.00;;;;;;4975676;28;19921;-70
2023/10/08 02:26:34;;;;;;;;;;;19.50;67.00;;;;;;4973505;28;19918;-73
2023/10/08 02:29:00;;;;;;;;;;;19.50;67.10;;;;;;4972356;28;20318;-73
2023/10/08 02:31:26;;;;;;;;;;;19.50;67.20;;;;;;4971686;28;20453;-74
2023/10/08 02:33:51;;;;;;;;;;;19.50;67.20;;;;;;4970557;28;19989;-74
2023/10/08 02:36:18;;;;;;;;;;;19.40;67.60;;;;;;4974485;28;20370;-74
2023/10/08 02:38:43;;;;;;;;;;;19.40;67.80;;;;;;4972330;28;19916;-75
2023/10/08 02:41:10;;;;;;;;;;;19.30;68.00;;;;;;4969305;28;20361;-74
2023/10/08 02:43:42;;;;;;;;;;;19.30;68.10;;;;;;4977142;28;20392;-70
2023/10/08 02:46:10;;;;;;;;;;;19.30;68.30;;;;;;4970860;28;19914;-74
2023/10/08 02:48:36;;;;;;;;;;;19.30;68.30;;;;;;4974004;28;19910;-74
2023/10/08 02:51:07;;;;;;;;;;;19.20;68.60;;;;;;4974939;28;19918;-75
2023/10/08 02:53:33;;;;;;;;;;;19.20;68.70;;;;;;4966126;28;20008;-73
2023/10/08 02:55:59;;;;;;;;;;;19.20;68.90;;;;;;4970184;28;19988;-74
2023/10/08 02:58:27;;;;;;;;;;;19.20;69.10;;;;;;4974606;28;19937;-75
2023/10/08 03:00:53;;;;;;;;;;;19.30;69.10;;;;;;4972431;28;19993;-71
2023/10/08 03:03:18;;;;;;;;;;;19.20;69.40;;;;;;4978349;28;20356;-72
2023/10/08 03:05:46;;;;;;;;;;;19.20;69.40;;;;;;4970167;28;19910;-75
2023/10/08 03:08:12;;;;;;;;;;;19.20;69.60;;;;;;4978203;28;20316;-73
2023/10/08 03:10:38;;;;;;;;;;;19.20;69.70;;;;;;4973303;28;19910;-74
2023/10/08 03:13:05;;;;;;;;;;;19.20;69.80;;;;;;4970821;28;19910;-74
2023/10/08 03:15:38;;;;;;;;;;;19.20;69.80;;;;;;4973781;28;19972;-75
2023/10/08 03:18:14;;;;;;;;;;;19.20;70.20;;;;;;4975124;28;19914;-75
2023/10/08 03:20:42;;;;;;;;;;;19.20;70.30;;;;;;4976929;28;20415;-73
2023/10/08 03:23:23;;;;;;;;;;;19.10;70.50;;;;;;4967309;28;20277;-70
2023/10/08 03:26:01;;;;;;;;;;;19.20;70.80;;;;;;4970663;28;19909;-71
2023/10/08 03:28:34;;;;;;;;;;;19.10;70.90;;;;;;4972598;28;19913;-74
2023/10/08 03:31:04;;;;;;;;;;;19.10;71.20;;;;;;4966658;28;19933;-74
2023/10/08 03:33:34;;;;;;;;;;;19.10;71.30;;;;;;4974115;28;19917;-73
2023/10/08 03:36:14;;;;;;;;;;;19.00;71.60;;;;;;4968168;28;19910;-74
2023/10/08 03:38:50;;;;;;;;;;;19.00;71.80;;;;;;4968654;28;19929;-74
2023/10/08 03:41:16;;;;;;;;;;;19.00;71.80;;;;;;4973520;28;20472;-73
2023/10/08 03:44:01;;;;;;;;;;;19.00;71.90;;;;;;4972063;28;19957;-71
2023/10/08 03:46:30;;;;;;;;;;;19.00;72.10;;;;;;4967484;28;20403;-74
2023/10/08 03:48:57;;;;;;;;;;;18.90;72.10;;;;;;4975275;28;19945;-74
2023/10/08 03:51:26;;;;;;;;;;;18.90;72.10;;;;;;4966816;28;19993;-74
2023/10/08 03:53:58;;;;;;;;;;;18.90;72.30;;;;;;4973540;28;19917;-74
2023/10/08 03:56:30;;;;;;;;;;;18.90;72.30;;;;;;4968074;28;20494;-74
2023/10/08 03:59:00;;;;;;;;;;;18.90;72.50;;;;;;4970083;28;19913;-73
2023/10/08 04:01:30;;;;;;;;;;;18.80;72.50;;;;;;4963104;28;20029;-74
2023/10/08 04:03:58;;;;;;;;;;;18.80;72.60;;;;;;4973308;28;20384;-73
2023/10/08 04:06:31;;;;;;;;;;;18.80;72.50;;;;;;4967735;28;19914;-74
2023/10/08 04:11:35;;;;;;;;;;;18.80;72.70;;;;;;4972620;28;19911;-73
2023/10/08 04:14:02;;;;;;;;;;;18.90;72.70;;;;;;4970305;28;19957;-73
2023/10/08 04:16:28;;;;;;;;;;;18.90;72.70;;;;;;4972590;28;19917;-75
2023/10/08 04:18:55;;;;;;;;;;;18.90;72.70;;;;;;4969403;28;19914;-74
2023/10/08 04:21:22;;;;;;;;;;;18.90;72.80;;;;;;4969396;28;19922;-75
2023/10/08 04:23:51;;;;;;;;;;;18.90;72.80;;;;;;4973525;28;20329;-74
2023/10/08 04:26:17;;;;;;;;;;;18.90;72.90;;;;;;4970088;28;19913;-74
2023/10/08 04:28:43;;;;;;;;;;;18.90;72.90;;;;;;4975053;28;19913;-74
2023/10/08 04:31:14;;;;;;;;;;;18.90;73.10;;;;;;4968102;28;19918;-69
2023/10/08 04:33:41;;;;;;;;;;;18.90;73.20;;;;;;4970654;28;19917;-73
2023/10/08 04:36:07;;;;;;;;;;;18.80;73.30;;;;;;4971106;28;20364;-74
2023/10/08 04:38:39;;;;;;;;;;;18.80;73.60;;;;;;4973286;28;19918;-75
2023/10/08 04:41:09;;;;;;;;;;;18.70;73.80;;;;;;4970126;28;20393;-72
2023/10/08 04:43:37;;;;;;;;;;;18.70;74.00;;;;;;4976583;28;19926;-74
2023/10/08 04:46:18;;;;;;;;;;;18.70;74.10;;;;;;4966437;28;19924;-72
2023/10/08 04:48:45;;;;;;;;;;;18.70;74.40;;;;;;4968612;28;19933;-74
2023/10/08 04:51:12;;;;;;;;;;;18.70;74.60;;;;;;4973400;28;20401;-72
2023/10/08 04:53:40;;;;;;;;;;;18.70;74.60;;;;;;4974199;28;20671;-72
2023/10/08 04:56:13;;;;;;;;;;;18.70;74.90;;;;;;4972219;28;19921;-75
2023/10/08 04:58:40;;;;;;;;;;;18.80;74.70;;;;;;4971489;28;19918;-70
2023/10/08 05:01:18;;;;;;;;;;;18.80;74.80;;;;;;4971336;28;19914;-73
2023/10/08 05:04:07;;;;;;;;;;;18.80;74.90;;;;;;4970764;28;19913;-72
2023/10/08 05:12:08;;;;;;;;;;;18.90;75.40;;;;;;4971494;28;19910;-71
2023/10/08 05:17:09;;;;;;;;;;;18.90;75.90;;;;;;4968894;28;19916;-75
2023/10/08 05:23:06;;;;;;;;;;;18.90;76.10;;;;;;4968707;28;19922;-76
2023/10/08 05:27:56;;;;;;;;;;;18.90;76.10;;;;;;4963338;28;20439;-76
2023/10/08 05:30:31;;;;;;;;;;;19.10;76.50;;;;;;4970676;28;19956;-75
2023/10/08 05:38:16;;;;;;;;;;;19.30;75.70;;;;;;4967089;28;19940;-75
2023/10/08 05:55:15;;;;;;;;;;;20.30;73.80;;;;;;4977362;28;19929;-73
2023/10/08 06:00:29;;;;;;;;;;;21.00;73.10;;;;;;4972626;28;19913;-76
2023/10/08 06:13:09;;;;;;;;;;;22.90;69.20;;;;;;4970410;28;21499;-76
2023/10/08 06:15:48;;;;;;;;;;;23.10;68.40;;;;;;4966763;28;19914;-76
2023/10/08 06:18:25;;;;;;;;;;;23.40;68.10;;;;;;4966569;28;19910;-76
2023/10/08 06:21:11;;;;;;;;;;;23.90;67.70;;;;;;4970731;28;19960;-75
2023/10/08 06:23:38;;;;;;;;;;;24.40;66.40;;;;;;4967560;28;20009;-76
2023/10/08 06:28:36;;;;;;;;;;;24.80;65.40;;;;;;4971950;28;20350;-77
2023/10/08 06:31:06;;;;;;;;;;;25.40;65.20;;;;;;4971767;28;19933;-77
2023/10/08 06:33:33;;;;;;;;;;;25.90;63.70;;;;;;4966152;28;19937;-77
2023/10/08 06:36:02;;;;;;;;;;;26.10;63.90;;;;;;4971991;28;19914;-77
2023/10/08 06:38:30;;;;;;;;;;;26.50;62.70;;;;;;4970480;28;19917;-77
2023/10/08 06:41:00;;;;;;;;;;;27.10;61.60;;;;;;4971735;28;20448;-75
2023/10/08 06:43:28;;;;;;;;;;;27.30;61.10;;;;;;4966843;28;19914;-75
2023/10/08 06:45:57;;;;;;;;;;;27.30;61.00;;;;;;4964251;28;19921;-78
2023/10/08 06:48:23;;;;;;;;;;;27.70;61.10;;;;;;4971088;28;19917;-77
2023/10/08 06:50:50;;;;;;;;;;;28.30;60.00;;;;;;4971359;28;19914;-73
2023/10/08 06:53:18;;;;;;;;;;;28.80;59.10;;;;;;4974838;28;20306;-73
2023/10/08 06:55:44;;;;;;;;;;;29.00;58.80;;;;;;4976259;28;19933;-75
2023/10/08 06:58:11;;;;;;;;;;;29.80;57.80;;;;;;4974911;28;19937;-80
2023/10/08 07:00:40;;;;;;;;;;;29.80;57.50;;;;;;4977379;28;20682;-78
2023/10/08 07:03:14;;;;;;;;;;;29.20;58.00;;;;;;4971334;28;19918;-79
2023/10/08 07:05:59;;;;;;;;;;;29.10;58.30;;;;;;4974318;28;19910;-80
2023/10/08 07:08:26;;;;;;;;;;;28.70;58.60;;;;;;4974194;28;19910;-81
2023/10/08 07:10:53;;;;;;;;;;;28.80;58.80;;;;;;4964893;28;19984;-80
2023/10/08 07:13:21;;;;;;;;;;;29.50;58.90;;;;;;4976497;28;20235;-77
2023/10/08 07:15:51;;;;;;;;;;;31.20;56.60;;;;;;4973312;28;20372;-76
2023/10/08 07:18:24;;;;;;;;;;;32.50;55.60;;;;;;4967669;28;20435;-80
2023/10/08 07:20:54;;;;;;;;;;;33.30;54.70;;;;;;4971137;28;19914;-79
2023/10/08 07:23:25;;;;;;;;;;;34.40;53.70;;;;;;4974191;28;19918;-77
2023/10/08 07:26:17;;;;;;;;;;;35.00;52.50;;;;;;4971412;28;19936;-83
2023/10/08 07:28:44;;;;;;;;;;;35.30;52.20;;;;;;4954938;28;19916;-78
2023/10/08 07:31:16;;;;;;;;;;;35.60;51.60;;;;;;4971010;28;19984;-81
2023/10/08 07:33:43;;;;;;;;;;;36.10;51.20;;;;;;4973602;28;20038;-75
2023/10/08 07:36:12;;;;;;;;;;;36.40;50.70;;;;;;4970078;28;19925;-78
2023/10/08 07:38:44;;;;;;;;;;;37.10;50.10;;;;;;4973730;28;19934;-79
2023/10/08 07:41:14;;;;;;;;;;;37.00;50.20;;;;;;4970502;28;19972;-79
2023/10/08 07:43:43;;;;;;;;;;;37.10;49.90;;;;;;4972779;28;20408;-84
2023/10/08 07:46:09;;;;;;;;;;;37.90;49.00;;;;;;4972234;28;19918;-70
2023/10/08 07:48:35;;;;;;;;;;;37.70;49.10;;;;;;4968897;28;20277;-70
2023/10/08 07:51:02;;;;;;;;;;;36.10;50.10;;;;;;4972818;28;19917;-69
2023/10/08 07:53:37;;;;;;;;;;;35.10;50.90;;;;;;4974767;28;19924;-71
2023/10/08 07:56:08;;;;;;;;;;;34.20;51.10;;;;;;4972352;28;19969;-70
2023/10/08 07:58:36;;;;;;;;;;;32.00;52.90;;;;;;4975138;28;20456;-74
2023/10/08 08:01:08;;;;;;;;;;;29.80;55.30;;;;;;4969349;28;19968;-73
2023/10/08 08:03:36;;;;;;;;;;;28.40;56.80;;;;;;4976811;28;19921;-74
2023/10/08 08:06:05;;;;;;;;;;;27.30;58.30;;;;;;4971749;28;19919;-73
2023/10/08 08:08:33;;;;;;;;;;;26.40;59.80;;;;;;4974604;28;19918;-73
2023/10/08 08:11:03;;;;;;;;;;;25.70;61.00;;;;;;4965770;28;19910;-73
2023/10/08 08:13:29;;;;;;;;;;;25.10;62.10;;;;;;4974111;28;19914;-72
2023/10/08 08:15:58;;;;;;;;;;;24.50;63.50;;;;;;4967203;28;19920;-72
2023/10/08 08:18:25;;;;;;;;;;;24.00;64.70;;;;;;4971316;28;19909;-72
2023/10/08 08:20:50;;;;;;;;;;;23.50;65.90;;;;;;4972565;28;19960;-72
2023/10/08 08:23:16;;;;;;;;;;;23.10;66.60;;;;;;4972045;28;19949;-71
2023/10/08 08:28:28;;;;;;;;;;;22.70;67.90;;;;;;4966467;28;19929;-72
2023/10/08 08:30:55;;;;;;;;;;;22.40;69.20;;;;;;4974123;28;20310;-72
2023/10/08 08:33:24;;;;;;;;;;;22.10;70.10;;;;;;4976858;28;19944;-72
2023/10/08 08:36:05;;;;;;;;;;;22.10;70.80;;;;;;4969875;28;20052;-71
2023/10/08 08:38:32;;;;;;;;;;;21.90;71.50;;;;;;4968488;28;19917;-73
2023/10/08 08:41:07;;;;;;;;;;;21.80;72.00;;;;;;4971076;28;20250;-73
2023/10/08 08:43:34;;;;;;;;;;;21.70;72.30;;;;;;4965047;28;20024;-71
2023/10/08 08:46:00;;;;;;;;;;;21.60;73.00;;;;;;4968911;28;19913;-71
2023/10/08 08:48:26;;;;;;;;;;;21.60;73.50;;;;;;4970217;28;19910;-71
2023/10/08 08:50:52;;;;;;;;;;;21.50;74.00;;;;;;4970694;28;20361;-72
2023/10/08 08:53:19;;;;;;;;;;;21.40;74.50;;;;;;4969439;28;19921;-71
2023/10/08 08:55:45;;;;;;;;;;;21.30;76.30;;;;;;4972531;28;19977;-72
2023/10/08 08:58:11;;;;;;;;;;;21.30;77.00;;;;;;4972949;28;20353;-72
2023/10/08 09:00:37;;;;;;;;;;;21.20;78.00;;;;;;4972809;28;20425;-73
2023/10/08 09:03:06;;;;;;;;;;;21.10;80.00;;;;;;4968836;28;19926;-72
2023/10/08 09:05:34;;;;;;;;;;;21.00;81.70;;;;;;4970807;28;20755;-69
2023/10/08 09:08:05;;;;;;;;;;;20.90;84.00;;;;;;4967768;28;19932;-71
2023/10/08 09:10:36;;;;;;;;;;;20.50;84.90;;;;;;4971210;28;20547;-72
2023/10/08 09:13:03;;;;;;;;;;;20.30;86.10;;;;;;4971510;28;20340;-72
2023/10/08 09:15:29;;;;;;;;;;;20.00;87.20;;;;;;4970496;28;19958;-74
2023/10/08 09:17:55;;;;;;;;;;;20.00;87.80;;;;;;4972819;28;19925;-75
2023/10/08 09:20:21;;;;;;;;;;;19.90;88.00;;;;;;4968718;28;19913;-72
2023/10/08 09:23:07;;;;;;;;;;;19.50;89.20;;;;;;4973297;28;20335;-70
2023/10/08 09:25:33;;;;;;;;;;;19.40;89.30;;;;;;4967358;28;19950;-73
2023/10/08 09:27:58;;;;;;;;;;;19.30;89.90;;;;;;4970928;28;19964;-73
2023/10/08 09:30:25;;;;;;;;;;;19.00;90.50;;;;;;4967107;28;19925;-74
2023/10/08 09:32:51;;;;;;;;;;;19.10;90.60;;;;;;4967671;28;20340;-73
2023/10/08 09:35:18;;;;;;;;;;;19.00;90.80;;;;;;4973057;28;19917;-73
2023/10/08 09:37:44;;;;;;;;;;;19.00;91.20;;;;;;4964067;28;19917;-73
2023/10/08 09:40:11;;;;;;;;;;;18.90;91.80;;;;;;4971410;28;19921;-67
2023/10/08 09:42:38;;;;;;;;;;;18.70;92.40;;;;;;4964017;28;20239;-68
2023/10/08 09:45:05;;;;;;;;;;;18.70;92.40;;;;;;4965756;28;19946;-71
2023/10/08 09:47:36;;;;;;;;;;;18.40;92.90;;;;;;4971949;28;19913;-75
2023/10/08 09:50:07;;;;;;;;;;;18.30;93.10;;;;;;4969152;28;19918;-73
2023/10/08 09:52:36;;;;;;;;;;;18.40;93.40;;;;;;4963190;28;20415;-72
2023/10/08 09:55:10;;;;;;;;;;;18.20;93.70;;;;;;4978151;28;20494;-72
2023/10/08 09:57:36;;;;;;;;;;;18.10;94.10;;;;;;4964380;28;20366;-73
2023/10/08 10:00:04;;;;;;;;;;;18.00;94.10;;;;;;4966669;28;19924;-73
2023/10/08 10:02:31;;;;;;;;;;;17.70;94.30;;;;;;4970872;28;20401;-74
2023/10/08 10:04:56;;;;;;;;;;;17.50;94.80;;;;;;4963468;28;19917;-73
2023/10/08 10:07:22;;;;;;;;;;;17.20;95.80;;;;;;4965949;28;19922;-74
2023/10/08 10:09:53;;;;;;;;;;;17.10;96.50;;;;;;4967823;28;20346;-72
2023/10/08 10:12:25;;;;;;;;;;;17.20;97.00;;;;;;4969323;28;19913;-71
2023/10/08 10:14:55;;;;;;;;;;;17.20;97.00;;;;;;4969954;28;19953;-74
2023/10/08 10:17:28;;;;;;;;;;;17.10;97.30;;;;;;4968236;28;20182;-73
2023/10/08 10:19:59;;;;;;;;;;;17.00;97.90;;;;;;4967107;28;19960;-73
2023/10/08 10:22:32;;;;;;;;;;;17.10;98.20;;;;;;4968839;28;19914;-73
2023/10/08 10:25:00;;;;;;;;;;;16.90;98.40;;;;;;4973226;28;19921;-74
2023/10/08 10:27:26;;;;;;;;;;;16.90;98.80;;;;;;4970246;28;20380;-74
2023/10/08 10:30:03;;;;;;;;;;;16.90;99.10;;;;;;4966151;28;19914;-74
2023/10/08 10:32:29;;;;;;;;;;;16.90;99.50;;;;;;4972397;28;19949;-75
2023/10/08 10:34:54;;;;;;;;;;;16.90;99.70;;;;;;4976375;28;20023;-73
2023/10/08 10:37:20;;;;;;;;;;;16.80;99.90;;;;;;4965090;28;20401;-74
2023/10/08 10:40:00;;;;;;;;;;;16.60;99.90;;;;;;4964904;28;20246;-75
2023/10/08 10:42:28;;;;;;;;;;;16.50;99.90;;;;;;4958524;28;19980;-72
2023/10/08 10:44:55;;;;;;;;;;;16.50;99.90;;;;;;4960868;28;19922;-72
2023/10/08 10:52:51;;;;;;;;;;;16.60;99.90;;;;;;4961102;28;19919;-71
2023/10/08 10:57:43;;;;;;;;;;;16.50;99.90;;;;;;4965452;28;19997;-74
2023/10/08 11:00:47;;;;;;;;;;;16.20;99.90;;;;;;4964410;28;19918;-73
2023/10/08 11:02:59;;;;;;;;;;;16.00;99.90;;;;;;4962654;28;19972;-74
2023/10/08 11:05:28;;;;;;;;;;;16.00;99.90;;;;;;4968652;28;20369;-72
2023/10/08 11:08:04;;;;;;;;;;;16.10;99.90;;;;;;4966827;28;19913;-74
2023/10/08 11:10:33;;;;;;;;;;;16.00;99.90;;;;;;4966786;28;19921;-70
2023/10/08 11:13:01;;;;;;;;;;;16.00;99.90;;;;;;4961848;28;19937;-71
2023/10/08 11:15:40;;;;;;;;;;;16.00;99.90;;;;;;4969403;28;19984;-72
2023/10/08 11:18:15;;;;;;;;;;;16.00;99.90;;;;;;4969534;28;20365;-72
2023/10/08 11:20:44;;;;;;;;;;;15.90;99.90;;;;;;4966206;28;19957;-73
2023/10/08 11:23:29;;;;;;;;;;;15.90;99.90;;;;;;4970294;28;20393;-73
2023/10/08 11:25:59;;;;;;;;;;;16.00;99.90;;;;;;4945446;28;19918;-71
2023/10/08 11:28:27;;;;;;;;;;;15.50;99.90;;;;;;4962896;28;20056;-70
2023/10/08 11:30:53;;;;;;;;;;;15.40;99.90;;;;;;4967161;28;21351;-69
2023/10/08 11:33:19;;;;;;;;;;;15.30;99.90;;;;;;4968485;28;19910;-70
2023/10/08 11:36:06;;;;;;;;;;;15.20;99.90;;;;;;4969400;28;19917;-72
2023/10/08 11:38:38;;;;;;;;;;;15.30;99.90;;;;;;4963299;28;19922;-72
2023/10/08 11:41:20;;;;;;;;;;;15.40;99.90;;;;;;4961239;28;19914;-71
2023/10/08 11:43:59;;;;;;;;;;;15.10;99.90;;;;;;4959320;28;19922;-71
2023/10/08 11:46:38;;;;;;;;;;;15.00;99.90;;;;;;4965363;28;19910;-71
2023/10/08 11:49:07;;;;;;;;;;;15.00;99.90;;;;;;4965932;28;20334;-71
2023/10/08 11:51:34;;;;;;;;;;;14.90;99.90;;;;;;4965294;28;19918;-70
2023/10/08 11:54:00;;;;;;;;;;;14.70;99.90;;;;;;4965274;28;20278;-71
2023/10/08 11:56:27;;;;;;;;;;;14.70;99.90;;;;;;4960350;28;19994;-73
2023/10/08 11:58:56;;;;;;;;;;;14.60;99.90;;;;;;4958563;28;19961;-69
2023/10/08 12:01:23;;;;;;;;;;;14.30;99.90;;;;;;4965190;28;19918;-73
2023/10/08 12:03:49;;;;;;;;;;;14.20;99.90;;;;;;4966016;28;19914;-69
2023/10/08 12:06:15;;;;;;;;;;;14.20;99.90;;;;;;4964100;28;20074;-74
2023/10/08 12:08:41;;;;;;;;;;;14.10;99.90;;;;;;4964678;28;20169;-76
2023/10/08 12:11:11;;;;;;;;;;;14.30;99.90;;;;;;4960585;28;19918;-76
2023/10/08 12:13:44;;;;;;;;;;;14.40;99.90;;;;;;4966232;28;19937;-77
2023/10/08 12:16:18;;;;;;;;;;;14.40;99.90;;;;;;4966300;28;20052;-78
2023/10/08 12:18:48;;;;;;;;;;;14.40;99.90;;;;;;4965049;28;20003;-77
2023/10/08 12:21:15;;;;;;;;;;;14.30;99.90;;;;;;4965197;28;19925;-74
2023/10/08 12:23:43;;;;;;;;;;;14.20;99.90;;;;;;4966437;28;20858;-77
2023/10/08 12:26:09;;;;;;;;;;;14.20;99.90;;;;;;4971268;28;19929;-75
2023/10/08 12:28:36;;;;;;;;;;;14.10;99.90;;;;;;4968418;28;19922;-74
2023/10/08 12:31:03;;;;;;;;;;;14.10;99.90;;;;;;4970625;28;19914;-75
2023/10/08 12:33:29;;;;;;;;;;;14.00;99.90;;;;;;4967056;28;19910;-75
2023/10/08 12:35:55;;;;;;;;;;;13.90;99.90;;;;;;4969713;28;19977;-75
2023/10/08 12:38:22;;;;;;;;;;;13.80;99.90;;;;;;4965337;28;19993;-72
2023/10/08 12:40:54;;;;;;;;;;;13.80;99.90;;;;;;4969817;28;19918;-76
2023/10/08 12:43:26;;;;;;;;;;;13.70;99.90;;;;;;4968400;28;19957;-76
2023/10/08 12:45:53;;;;;;;;;;;13.80;99.90;;;;;;4972042;28;20294;-73
2023/10/08 12:48:24;;;;;;;;;;;13.80;99.90;;;;;;4973302;28;19961;-72
2023/10/08 12:51:00;;;;;;;;;;;13.80;99.90;;;;;;4961221;28;19917;-73
2023/10/08 12:53:39;;;;;;;;;;;13.90;99.90;;;;;;4958329;28;19914;-73
2023/10/08 12:56:05;;;;;;;;;;;13.90;99.90;;;;;;4967715;28;19910;-72
2023/10/08 12:58:44;;;;;;;;;;;14.00;99.90;;;;;;4960136;28;19914;-73
2023/10/08 13:01:14;;;;;;;;;;;13.90;99.90;;;;;;4962824;28;19922;-76
2023/10/08 13:03:47;;;;;;;;;;;13.90;99.90;;;;;;4968688;28;19937;-73
2023/10/08 13:06:28;;;;;;;;;;;13.90;99.90;;;;;;4958386;28;19952;-73
2023/10/08 13:09:00;;;;;;;;;;;13.90;99.90;;;;;;4960455;28;20017;-73
2023/10/08 13:11:29;;;;;;;;;;;13.80;99.90;;;;;;4965552;28;20683;-74
2023/10/08 13:13:59;;;;;;;;;;;13.70;99.90;;;;;;4973805;28;19914;-74
2023/10/08 13:16:26;;;;;;;;;;;13.70;99.90;;;;;;4967643;28;19957;-74
2023/10/08 13:18:52;;;;;;;;;;;13.70;99.90;;;;;;4971894;28;19914;-73
2023/10/08 13:21:37;;;;;;;;;;;13.70;99.90;;;;;;4970909;28;19921;-74
2023/10/08 13:24:05;;;;;;;;;;;13.60;99.90;;;;;;4966099;28;19918;-74
2023/10/08 13:26:31;;;;;;;;;;;13.60;99.90;;;;;;4967204;28;19936;-75
2023/10/08 13:29:00;;;;;;;;;;;13.70;99.90;;;;;;4962468;28;19992;-75
2023/10/08 13:31:27;;;;;;;;;;;13.70;99.90;;;;;;4963802;28;19910;-74
2023/10/08 13:33:56;;;;;;;;;;;13.80;99.90;;;;;;4963713;28;19914;-73
2023/10/08 13:36:23;;;;;;;;;;;13.80;99.90;;;;;;4964487;28;19934;-75
2023/10/08 13:38:50;;;;;;;;;;;13.80;99.90;;;;;;4963264;28;20471;-73
2023/10/08 13:41:16;;;;;;;;;;;13.80;99.90;;;;;;4969202;28;19918;-73
2023/10/08 13:43:45;;;;;;;;;;;13.80;99.90;;;;;;4975871;28;19964;-73
2023/10/08 13:46:14;;;;;;;;;;;13.80;99.90;;;;;;4966597;28;20040;-73
2023/10/08 13:48:42;;;;;;;;;;;13.80;99.90;;;;;;4974431;28;19913;-73
2023/10/08 13:51:14;;;;;;;;;;;13.60;99.90;;;;;;4970077;28;19985;-73
2023/10/08 13:53:44;;;;;;;;;;;13.70;99.90;;;;;;4967373;28;19961;-73
2023/10/08 13:56:11;;;;;;;;;;;13.80;99.90;;;;;;4972837;28;20385;-74
2023/10/08 13:58:45;;;;;;;;;;;13.80;99.90;;;;;;4971208;28;20042;-73
2023/10/08 14:01:21;;;;;;;;;;;13.70;99.90;;;;;;4963780;28;19918;-73
2023/10/08 14:03:48;;;;;;;;;;;13.70;99.90;;;;;;4967906;28;19914;-74
2023/10/08 14:06:16;;;;;;;;;;;13.80;99.90;;;;;;4963970;28;20417;-73
2023/10/08 14:08:44;;;;;;;;;;;13.80;99.90;;;;;;4973872;28;20000;-73
2023/10/08 14:11:12;;;;;;;;;;;13.80;99.90;;;;;;4969786;28;20027;-72
2023/10/08 14:13:41;;;;;;;;;;;13.80;99.90;;;;;;4971777;28;19948;-72
2023/10/08 14:16:11;;;;;;;;;;;13.70;99.90;;;;;;4968142;28;20657;-72
2023/10/08 14:18:48;;;;;;;;;;;13.70;99.90;;;;;;4975744;28;20265;-73
2023/10/08 14:21:15;;;;;;;;;;;13.70;99.90;;;;;;4964337;28;19913;-74
2023/10/08 14:23:41;;;;;;;;;;;13.60;99.90;;;;;;4965516;28;19925;-76
2023/10/08 14:26:10;;;;;;;;;;;13.40;99.90;;;;;;4975024;28;19976;-74
2023/10/08 14:28:51;;;;;;;;;;;13.30;99.90;;;;;;4973248;28;19914;-74
2023/10/08 14:31:17;;;;;;;;;;;13.30;99.90;;;;;;4971411;28;19979;-74
2023/10/08 14:33:55;;;;;;;;;;;13.40;99.90;;;;;;4958048;28;20249;-75
2023/10/08 14:44:39;;;;;;;;;;;13.10;99.90;;;;;;4964968;28;19990;-73
2023/10/08 14:47:05;;;;;;;;;;;13.10;99.90;;;;;;4963348;28;20424;-74
2023/10/08 14:49:32;;;;;;;;;;;13.10;99.90;;;;;;4962768;28;19920;-73
2023/10/08 14:51:58;;;;;;;;;;;13.00;99.90;;;;;;4962194;28;20377;-74
2023/10/08 14:54:24;;;;;;;;;;;13.00;99.90;;;;;;4963035;28;20017;-74
2023/10/08 14:56:51;;;;;;;;;;;13.10;99.90;;;;;;4962736;28;19941;-74
2023/10/08 14:59:17;;;;;;;;;;;13.10;99.90;;;;;;4964638;28;19940;-70
2023/10/08 15:01:44;;;;;;;;;;;13.00;99.90;;;;;;4960813;28;20417;-71
2023/10/08 15:04:11;;;;;;;;;;;13.10;99.90;;;;;;4960552;28;20014;-70
2023/10/08 15:06:38;;;;;;;;;;;13.20;99.90;;;;;;4965080;28;19961;-72
2023/10/08 15:09:07;;;;;;;;;;;13.30;99.90;;;;;;4968238;28;19914;-72
2023/10/08 15:11:35;;;;;;;;;;;13.30;99.90;;;;;;4962734;28;19925;-70
2023/10/08 15:14:09;;;;;;;;;;;13.30;99.90;;;;;;4971398;28;20199;-70
2023/10/08 15:16:39;;;;;;;;;;;13.30;99.90;;;;;;4967631;28;19918;-70
2023/10/08 15:19:05;;;;;;;;;;;13.30;99.90;;;;;;4970844;28;20298;-71
2023/10/08 15:21:35;;;;;;;;;;;13.30;99.90;;;;;;4966487;28;19922;-71
2023/10/08 15:24:10;;;;;;;;;;;13.30;99.90;;;;;;4969111;28;20440;-70
2023/10/08 15:26:36;;;;;;;;;;;13.30;99.90;;;;;;4967761;28;19941;-70
2023/10/08 15:29:03;;;;;;;;;;;13.30;99.90;;;;;;4965816;28;19937;-71
2023/10/08 15:31:29;;;;;;;;;;;13.30;99.90;;;;;;4971841;28;20581;-71
2023/10/08 15:33:56;;;;;;;;;;;13.20;99.90;;;;;;4969599;28;19918;-71
2023/10/08 15:36:22;;;;;;;;;;;13.10;99.90;;;;;;4972504;28;19921;-71
2023/10/08 15:38:48;;;;;;;;;;;13.10;99.90;;;;;;4965991;28;19925;-72
2023/10/08 15:41:16;;;;;;;;;;;13.20;99.90;;;;;;4946233;28;20910;-71